createdAt,value
2019-04-16T00:00:25.681Z,4.77
2019-04-16T00:03:00.942Z,4.03
2019-04-16T00:06:03.980Z,4.50
2019-04-16T00:08:51.498Z,5.07
2019-04-16T00:11:45.531Z,4.60
2019-04-16T00:14:32.849Z,4.87
2019-04-16T00:17:07.870Z,5.50
2019-04-16T00:19:43.106Z,4.77
2019-04-16T00:22:30.551Z,4.43
2019-04-16T00:25:05.602Z,4.73
2019-04-16T00:27:40.724Z,4.90
2019-04-16T00:30:17.338Z,4.70
2019-04-16T00:32:52.426Z,3.97
2019-04-16T00:35:27.412Z,4.30
2019-04-16T00:38:02.536Z,4.40
2019-04-16T00:40:37.583Z,4.43
2019-04-16T00:43:12.720Z,4.20
2019-04-16T00:45:47.734Z,4.40
2019-04-16T00:48:22.910Z,4.30
2019-04-16T00:50:58.030Z,4.00
2019-04-16T00:53:33.337Z,4.27
2019-04-16T00:56:08.310Z,5.03
2019-04-16T00:58:52.225Z,3.77
2019-04-16T01:01:28.053Z,4.60
2019-04-16T01:04:03.509Z,3.87
2019-04-16T01:06:40.684Z,3.23
2019-04-16T01:09:15.213Z,4.00
2019-04-16T01:11:51.975Z,3.83
2019-04-16T01:14:27.455Z,4.10
2019-04-16T01:17:05.093Z,4.80
2019-04-16T01:19:41.136Z,4.43
2019-04-16T01:22:16.846Z,4.60
2019-04-16T01:24:52.702Z,4.80
2019-04-16T01:27:37.226Z,3.97
2019-04-16T01:30:15.052Z,4.00
2019-04-16T01:33:00.440Z,5.00
2019-04-16T01:35:51.742Z,4.63
2019-04-16T01:38:33.600Z,4.60
2019-04-16T01:41:13.422Z,4.23
2019-04-16T01:43:50.116Z,4.80
2019-04-16T01:46:25.120Z,4.80
2019-04-16T01:49:00.343Z,4.23
2019-04-16T01:51:37.750Z,4.57
2019-04-16T01:54:12.662Z,4.60
2019-04-16T01:56:47.729Z,3.93
2019-04-16T01:59:22.908Z,4.57
2019-04-16T02:01:57.944Z,4.70
2019-04-16T02:04:33.273Z,4.70
2019-04-16T02:07:08.272Z,4.87
2019-04-16T02:09:43.379Z,4.00
2019-04-16T02:12:18.392Z,4.67
2019-04-16T02:14:53.514Z,4.80
2019-04-16T02:17:28.493Z,5.33
2019-04-16T02:20:06.036Z,4.57
2019-04-16T02:22:42.293Z,4.87
2019-04-16T02:25:20.146Z,4.67
2019-04-16T02:27:56.983Z,4.30
2019-04-16T02:30:37.559Z,4.70
2019-04-16T02:33:09.846Z,5.17
2019-04-16T02:35:44.865Z,5.00
2019-04-16T02:38:22.888Z,5.07
2019-04-16T02:40:57.873Z,4.93
2019-04-16T02:43:39.394Z,5.20
2019-04-16T02:46:10.424Z,7.33
2019-04-16T02:48:50.169Z,5.60
2019-04-16T02:51:53.191Z,5.17
2019-04-16T02:54:42.649Z,4.30
2019-04-16T02:57:59.966Z,4.37
2019-04-16T03:00:53.858Z,5.20
2019-04-16T03:03:37.095Z,5.00
2019-04-16T03:06:12.216Z,4.30
2019-04-16T03:08:49.130Z,4.50
2019-04-16T03:11:24.125Z,4.73
2019-04-16T03:13:59.489Z,5.03
2019-04-16T03:16:53.570Z,5.70
2019-04-16T03:19:56.514Z,4.50
2019-04-16T03:22:33.483Z,4.57
2019-04-16T03:25:12.573Z,4.70
2019-04-16T03:27:46.256Z,4.70
2019-04-16T03:30:22.674Z,5.60
2019-04-16T03:32:57.881Z,5.13
2019-04-16T03:35:33.231Z,5.07
2019-04-16T03:38:08.215Z,5.33
2019-04-16T03:40:43.316Z,4.63
2019-04-16T03:43:18.315Z,5.53
2019-04-16T03:45:53.514Z,5.40
2019-04-16T03:48:28.528Z,4.73
2019-04-16T03:51:04.814Z,4.80
2019-04-16T03:53:40.124Z,5.13
2019-04-16T03:56:15.132Z,4.70
2019-04-16T04:05:35.085Z,5.10
2019-04-16T04:08:09.480Z,5.20
2019-04-16T04:10:47.617Z,5.20
2019-04-16T04:13:23.436Z,5.37
2019-04-16T04:16:01.512Z,4.30
2019-04-16T04:18:36.265Z,4.43
2019-04-16T04:21:11.444Z,4.77
2019-04-16T04:23:46.440Z,4.63
2019-04-16T04:26:21.646Z,4.80
2019-04-16T04:28:57.615Z,5.00
2019-04-16T04:31:33.192Z,5.40
2019-04-16T04:34:10.748Z,4.10
2019-04-16T04:36:45.915Z,5.33
2019-04-16T04:39:21.052Z,4.83
2019-04-16T04:41:57.198Z,5.17
2019-04-16T04:44:36.960Z,5.40
2019-04-16T04:47:12.028Z,5.67
2019-04-16T04:49:47.032Z,4.80
2019-04-16T04:52:22.248Z,4.47
2019-04-16T04:54:57.489Z,5.17
2019-04-16T04:57:32.939Z,3.60
2019-04-16T05:00:09.527Z,4.67
2019-04-16T05:02:45.297Z,4.13
2019-04-16T05:05:28.337Z,5.37
2019-04-16T05:08:03.778Z,4.73
2019-04-16T05:11:02.696Z,4.80
2019-04-16T05:13:39.606Z,4.30
2019-04-16T05:16:14.597Z,4.53
2019-04-16T05:18:49.611Z,4.93
2019-04-16T05:21:24.612Z,4.83
2019-04-16T05:23:59.592Z,4.50
2019-04-16T05:26:36.482Z,4.50
2019-04-16T05:29:16.337Z,5.20
2019-04-16T05:31:49.229Z,5.73
2019-04-16T05:34:24.318Z,5.17
2019-04-16T05:36:59.315Z,5.13
2019-04-16T05:39:34.650Z,4.50
2019-04-16T05:42:15.210Z,4.60
2019-04-16T05:44:50.199Z,5.23
2019-04-16T05:47:27.889Z,4.97
2019-04-16T05:50:02.995Z,4.73
2019-04-16T05:52:38.099Z,4.60
2019-04-16T05:55:27.285Z,4.70
2019-04-16T05:58:02.435Z,4.60
2019-04-16T06:00:42.723Z,4.63
2019-04-16T06:03:21.816Z,4.67
2019-04-16T06:05:56.368Z,5.03
2019-04-16T06:08:32.689Z,4.80
2019-04-16T06:11:07.699Z,5.23
2019-04-16T06:13:58.150Z,4.53
2019-04-16T06:17:06.856Z,4.80
2019-04-16T06:20:11.671Z,4.67
2019-04-16T06:23:00.640Z,3.67
2019-04-16T06:25:45.227Z,4.60
2019-04-16T06:28:38.611Z,4.07
2019-04-16T06:31:39.134Z,4.20
2019-04-16T06:34:27.730Z,4.20
2019-04-16T06:37:26.552Z,4.40
2019-04-16T06:40:32.848Z,4.90
2019-04-16T06:43:25.736Z,5.53
2019-04-16T06:46:29.679Z,5.80
2019-04-16T06:49:21.771Z,5.50
2019-04-16T06:52:16.604Z,5.37
2019-04-16T06:55:21.087Z,5.23
2019-04-16T06:58:18.364Z,5.00
2019-04-16T07:01:22.701Z,4.90
2019-04-16T07:04:06.596Z,5.13
2019-04-16T07:06:57.551Z,4.80
2019-04-16T07:09:47.817Z,4.60
2019-04-16T07:12:24.971Z,5.40
2019-04-16T07:15:00.000Z,4.63
2019-04-16T07:17:35.313Z,5.70
2019-04-16T07:20:13.511Z,4.63
2019-04-16T07:22:52.691Z,5.03
2019-04-16T07:25:27.125Z,5.60
2019-04-16T07:28:08.703Z,4.97
2019-04-16T07:30:59.032Z,4.70
2019-04-16T07:34:05.439Z,4.70
2019-04-16T07:36:47.914Z,4.60
2019-04-16T07:39:37.293Z,4.97
2019-04-16T07:42:26.228Z,5.00
2019-04-16T07:45:21.741Z,5.27
2019-04-16T07:48:32.823Z,5.47
2019-04-16T07:51:24.927Z,5.97
2019-04-16T07:54:21.778Z,5.37
2019-04-16T07:56:56.712Z,4.60
2019-04-16T07:59:32.882Z,5.30
2019-04-16T08:02:08.056Z,5.30
2019-04-16T08:04:43.157Z,5.80
2019-04-16T08:07:20.442Z,6.13
2019-04-16T08:09:54.954Z,5.87
2019-04-16T08:12:31.021Z,5.53
2019-04-16T08:15:14.509Z,6.10
2019-04-16T08:17:44.447Z,6.53
2019-04-16T08:20:20.965Z,6.07
2019-04-16T08:22:59.882Z,5.63
2019-04-16T08:25:35.214Z,6.27
2019-04-16T08:28:10.243Z,5.47
2019-04-16T08:30:45.448Z,6.33
2019-04-16T08:33:20.464Z,6.00
2019-04-16T08:35:55.471Z,5.93
2019-04-16T08:38:34.060Z,5.23
2019-04-16T08:41:07.575Z,5.47
2019-04-16T08:43:42.699Z,5.00
2019-04-16T08:46:17.916Z,5.97
2019-04-16T08:48:54.446Z,6.33
2019-04-16T08:51:31.256Z,6.20
2019-04-16T08:54:07.279Z,5.30
2019-04-16T08:56:47.154Z,6.57
2019-04-16T08:59:22.478Z,5.57
2019-04-16T09:01:57.554Z,6.07
2019-04-16T09:04:34.550Z,5.63
2019-04-16T09:07:13.337Z,6.63
2019-04-16T09:09:57.031Z,6.63
2019-04-16T09:12:29.744Z,6.77
2019-04-16T09:15:05.721Z,6.00
2019-04-16T09:17:43.450Z,6.33
2019-04-16T09:20:23.070Z,5.97
2019-04-16T09:22:58.901Z,6.43
2019-04-16T09:25:52.060Z,6.27
2019-04-16T09:28:42.449Z,6.40
2019-04-16T09:31:42.657Z,6.67
2019-04-16T09:34:30.156Z,6.20
2019-04-16T09:37:37.082Z,6.33
2019-04-16T09:40:31.384Z,5.70
2019-04-16T09:43:16.696Z,5.97
2019-04-16T09:45:46.186Z,6.77
2019-04-16T09:48:21.425Z,6.40
2019-04-16T09:50:56.502Z,6.10
2019-04-16T09:53:34.278Z,6.00
2019-04-16T09:56:33.160Z,6.63
2019-04-16T09:59:27.264Z,5.87
2019-04-16T10:02:09.755Z,6.57
2019-04-16T10:04:44.796Z,6.63
2019-04-16T10:07:21.486Z,7.10
2019-04-16T10:09:57.301Z,7.03
2019-04-16T10:12:32.767Z,6.30
2019-04-16T10:15:08.973Z,6.77
2019-04-16T10:17:44.256Z,7.03
2019-04-16T10:20:19.387Z,6.40
2019-04-16T10:22:54.607Z,6.63
2019-04-16T10:25:33.492Z,7.23
2019-04-16T10:28:24.152Z,6.80
2019-04-16T10:30:59.400Z,6.00
2019-04-16T10:33:36.576Z,7.07
2019-04-16T10:36:11.910Z,6.63
2019-04-16T10:39:05.868Z,6.93
2019-04-16T10:42:03.334Z,7.30
2019-04-16T10:44:46.298Z,7.50
2019-04-16T10:47:49.700Z,7.13
2019-04-16T10:50:58.660Z,6.77
2019-04-16T10:53:57.021Z,7.43
2019-04-16T10:56:50.246Z,6.83
2019-04-16T10:59:54.628Z,7.80
2019-04-16T11:02:47.283Z,7.10
2019-04-16T11:05:40.773Z,6.57
2019-04-16T11:08:16.340Z,7.10
2019-04-16T11:10:51.500Z,6.77
2019-04-16T11:13:32.283Z,7.60
2019-04-16T11:16:12.111Z,7.30
2019-04-16T11:18:47.307Z,7.03
2019-04-16T11:21:24.475Z,6.90
2019-04-16T11:23:59.658Z,7.60
2019-04-16T11:26:36.375Z,6.63
2019-04-16T11:29:11.580Z,6.47
2019-04-16T11:31:46.955Z,6.37
2019-04-16T11:34:22.140Z,7.40
2019-04-16T11:36:58.557Z,6.73
2019-04-16T11:39:34.568Z,6.97
2019-04-16T11:42:09.618Z,6.60
2019-04-16T11:44:44.910Z,7.30
2019-04-16T11:47:34.987Z,6.90
2019-04-16T11:49:57.974Z,7.33
2019-04-16T11:52:33.378Z,8.00
2019-04-16T11:55:08.559Z,7.20
2019-04-16T11:57:44.098Z,7.73
2019-04-16T12:00:44.840Z,6.77
2019-04-16T12:03:39.397Z,7.20
2019-04-16T12:06:28.533Z,7.17
2019-04-16T12:09:16.480Z,6.87
2019-04-16T12:11:57.590Z,7.10
2019-04-16T12:14:51.644Z,7.83
2019-04-16T12:17:48.589Z,8.00
2019-04-16T12:20:41.363Z,7.07
2019-04-16T12:23:34.248Z,7.17
2019-04-16T12:26:44.415Z,7.60
2019-04-16T12:29:38.404Z,7.50
2019-04-16T12:32:27.276Z,6.87
2019-04-16T12:35:16.405Z,7.20
2019-04-16T12:38:13.151Z,5.70
2019-04-16T12:41:06.062Z,6.33
2019-04-16T12:43:44.987Z,6.33
2019-04-16T12:46:29.687Z,6.43
2019-04-16T12:49:30.752Z,6.43
2019-04-16T12:52:22.440Z,6.50
2019-04-16T12:55:31.604Z,6.00
2019-04-16T12:58:12.702Z,5.87
2019-04-16T13:01:05.245Z,6.80
2019-04-16T13:04:00.432Z,6.50
2019-04-16T13:06:51.082Z,6.40
2019-04-16T13:09:48.087Z,6.60
2019-04-16T13:12:48.456Z,6.30
2019-04-16T13:15:29.125Z,5.90
2019-04-16T13:18:22.130Z,6.17
2019-04-16T13:21:16.012Z,6.43
2019-04-16T13:24:09.781Z,7.00
2019-04-16T13:26:58.214Z,6.73
2019-04-16T13:29:34.307Z,5.50
2019-04-16T13:32:09.446Z,6.77
2019-04-16T13:34:44.687Z,6.53
2019-04-16T13:37:19.756Z,7.40
2019-04-16T13:40:06.346Z,7.00
2019-04-16T13:42:41.460Z,8.23
2019-04-16T13:45:27.743Z,7.47
2019-04-16T13:48:15.452Z,6.60
2019-04-16T13:50:46.470Z,6.77
2019-04-16T13:53:46.306Z,7.13
2019-04-16T13:56:30.579Z,7.50
2019-04-16T13:59:23.850Z,7.73
2019-04-16T14:02:18.735Z,7.00
2019-04-16T14:04:54.002Z,8.20
2019-04-16T14:07:28.998Z,7.70
2019-04-16T14:10:18.514Z,7.53
2019-04-16T14:12:53.649Z,7.30
2019-04-16T14:15:35.690Z,6.90
2019-04-16T14:18:08.422Z,7.77
2019-04-16T14:20:43.658Z,7.63
2019-04-16T14:23:19.887Z,8.60
2019-04-16T14:25:55.142Z,7.90
2019-04-16T14:28:34.233Z,7.87
2019-04-16T14:31:07.070Z,7.77
2019-04-16T14:33:52.679Z,7.57
2019-04-16T14:36:27.672Z,7.43
2019-04-16T14:39:14.618Z,7.60
2019-04-16T14:41:50.390Z,7.70
2019-04-16T14:44:27.341Z,6.70
2019-04-16T14:47:02.868Z,7.80
2019-04-16T14:49:37.914Z,7.87
2019-04-16T14:52:13.585Z,7.67
2019-04-16T14:54:58.364Z,8.10
2019-04-16T14:57:34.135Z,8.00
2019-04-16T15:00:27.245Z,8.67
2019-04-16T15:03:08.109Z,8.57
2019-04-16T15:06:02.743Z,8.30
2019-04-16T15:08:49.784Z,7.70
2019-04-16T15:11:53.562Z,8.70
2019-04-16T15:14:33.620Z,8.07
2019-04-16T15:17:22.269Z,8.70
2019-04-16T15:20:12.898Z,7.90
2019-04-16T15:23:08.840Z,8.83
2019-04-16T15:26:05.831Z,9.33
2019-04-16T15:28:49.210Z,8.03
2019-04-16T15:31:48.163Z,8.80
2019-04-16T15:34:27.100Z,8.70
2019-04-16T15:37:29.948Z,9.03
2019-04-16T15:40:16.267Z,10.00
2019-04-16T15:43:09.628Z,9.23
2019-04-16T15:46:25.226Z,10.30
2019-04-16T15:49:19.413Z,9.57
2019-04-16T15:52:25.278Z,10.00
2019-04-16T15:55:07.785Z,9.13
2019-04-16T15:58:07.768Z,9.60
2019-04-16T16:01:12.744Z,9.33
2019-04-16T16:04:10.267Z,9.17
2019-04-16T16:07:08.158Z,10.00
2019-04-16T16:10:05.312Z,10.27
2019-04-16T16:12:40.557Z,9.23
2019-04-16T16:15:15.864Z,10.00
2019-04-16T16:17:51.126Z,10.07
2019-04-16T16:20:27.558Z,9.70
2019-04-16T16:23:04.871Z,9.80
2019-04-16T16:25:58.216Z,10.40
2019-04-16T16:28:33.784Z,10.30
2019-04-16T16:31:15.868Z,10.73
2019-04-16T16:33:52.560Z,10.20
2019-04-16T16:36:27.617Z,9.67
2019-04-16T16:39:07.123Z,10.33
2019-04-16T16:41:46.539Z,11.17
2019-04-16T16:44:20.876Z,9.73
2019-04-16T16:47:14.305Z,9.80
2019-04-16T16:49:49.436Z,10.60
2019-04-16T16:52:41.773Z,10.90
2019-04-16T16:55:27.169Z,10.07
2019-04-16T16:58:21.855Z,9.97
2019-04-16T17:01:15.796Z,9.90
2019-04-16T17:04:18.715Z,10.17
2019-04-16T17:06:54.077Z,11.20
2019-04-16T17:09:32.693Z,9.90
2019-04-16T17:12:07.784Z,11.17
2019-04-16T17:14:47.637Z,10.37
2019-04-16T17:17:22.965Z,8.87
2019-04-16T17:19:58.007Z,10.10
2019-04-16T17:22:33.385Z,10.40
2019-04-16T17:25:11.688Z,11.50
2019-04-16T17:27:51.688Z,10.70
2019-04-16T17:30:22.620Z,9.70
2019-04-16T17:32:57.710Z,11.00
2019-04-16T17:35:33.185Z,10.40
2019-04-16T17:38:08.283Z,10.00
2019-04-16T17:40:58.661Z,10.70
2019-04-16T17:44:01.942Z,10.17
2019-04-16T17:46:48.406Z,9.70
2019-04-16T17:49:42.549Z,11.10
2019-04-16T17:52:39.283Z,10.20
2019-04-16T17:55:46.885Z,9.73
2019-04-16T17:58:32.161Z,10.77
2019-04-16T18:01:25.473Z,10.17
2019-04-16T18:04:22.581Z,10.63
2019-04-16T18:07:14.565Z,12.07
2019-04-16T18:10:26.919Z,13.70
2019-04-16T18:13:31.850Z,11.97
2019-04-16T18:16:19.279Z,10.97
2019-04-16T18:19:24.689Z,10.60
2019-04-16T18:22:08.223Z,10.80
2019-04-16T18:25:02.439Z,11.23
2019-04-16T18:28:05.489Z,10.17
2019-04-16T18:31:06.949Z,10.07
2019-04-16T18:33:47.945Z,11.27
2019-04-16T18:36:35.408Z,11.20
2019-04-16T18:39:38.674Z,10.47
2019-04-16T18:42:18.796Z,10.63
2019-04-16T18:45:01.993Z,11.53
2019-04-16T18:48:12.805Z,11.20
2019-04-16T18:50:42.207Z,10.70
2019-04-16T18:53:17.427Z,10.37
2019-04-16T18:55:52.549Z,10.27
2019-04-16T18:58:27.629Z,11.70
2019-04-16T19:01:09.286Z,11.10
2019-04-16T19:03:45.893Z,10.50
2019-04-16T19:06:21.108Z,10.40
2019-04-16T19:08:57.299Z,10.60
2019-04-16T19:11:34.415Z,10.70
2019-04-16T19:14:10.223Z,10.57
2019-04-16T19:16:48.443Z,11.97
2019-04-16T19:19:23.317Z,10.17
2019-04-16T19:21:58.527Z,10.47
2019-04-16T19:24:34.461Z,10.93
2019-04-16T19:27:09.512Z,11.20
2019-04-16T19:29:45.501Z,11.17
2019-04-16T19:32:21.471Z,10.67
2019-04-16T19:35:08.892Z,11.00
2019-04-16T19:37:34.050Z,10.83
2019-04-16T19:40:09.305Z,10.20
2019-04-16T19:42:44.553Z,11.93
2019-04-16T19:45:19.621Z,10.73
2019-04-16T19:48:00.126Z,10.77
2019-04-16T19:50:36.084Z,11.40
2019-04-16T19:53:13.660Z,11.80
2019-04-16T19:55:45.980Z,9.93
2019-04-16T19:58:21.759Z,9.80
2019-04-16T20:00:59.149Z,10.30
2019-04-16T20:03:34.981Z,11.13
2019-04-16T20:06:10.092Z,11.10
2019-04-16T20:08:48.166Z,10.57
2019-04-16T20:11:23.448Z,10.53
2019-04-16T20:14:01.487Z,10.77
2019-04-16T20:16:35.369Z,11.03
2019-04-16T20:19:10.430Z,10.47
2019-04-16T20:21:45.482Z,10.47
2019-04-16T20:24:20.501Z,10.50
2019-04-16T20:26:56.077Z,9.93
2019-04-16T20:29:31.094Z,9.67
2019-04-16T20:32:06.484Z,9.67
2019-04-16T20:34:42.413Z,9.80
2019-04-16T20:37:18.671Z,10.80
2019-04-16T20:39:53.879Z,10.30
2019-04-16T20:42:28.930Z,9.97
2019-04-16T20:45:04.167Z,11.30
2019-04-16T20:47:40.156Z,9.70
2019-04-16T20:50:20.513Z,10.20
2019-04-16T20:52:55.709Z,10.30
2019-04-16T20:55:30.884Z,10.20
2019-04-16T20:58:06.022Z,9.97
2019-04-16T21:00:43.913Z,9.30
2019-04-16T21:03:22.427Z,9.93
2019-04-16T21:05:58.846Z,10.00
2019-04-16T21:08:32.780Z,10.50
2019-04-16T21:11:09.580Z,11.03
2019-04-16T21:13:46.867Z,9.30
2019-04-16T21:16:21.853Z,9.47
2019-04-16T21:18:56.943Z,9.30
2019-04-16T21:21:32.186Z,9.63
2019-04-16T21:24:08.828Z,9.30
2019-04-16T21:26:44.204Z,11.60
2019-04-16T21:29:26.559Z,9.87
2019-04-16T21:32:03.513Z,11.23
2019-04-16T21:34:44.350Z,10.90
2019-04-16T21:37:57.780Z,9.97
2019-04-16T21:40:33.360Z,10.30
2019-04-16T21:43:08.970Z,9.67
2019-04-16T21:45:45.597Z,10.87
2019-04-16T21:48:23.847Z,9.27
2019-04-16T21:50:57.542Z,9.63
2019-04-16T21:53:33.407Z,9.87
2019-04-16T21:56:09.558Z,9.33
2019-04-16T21:58:46.631Z,9.73
2019-04-16T22:01:36.629Z,9.77
2019-04-16T22:04:15.935Z,9.73
2019-04-16T22:06:55.360Z,10.33
2019-04-16T22:09:30.730Z,9.43
2019-04-16T22:12:06.658Z,9.90
2019-04-16T22:14:41.908Z,9.60
2019-04-16T22:17:16.973Z,9.43
2019-04-16T22:20:00.156Z,9.77
2019-04-16T22:22:28.994Z,9.40
2019-04-16T22:25:04.255Z,8.33
2019-04-16T22:27:39.758Z,8.90
2019-04-16T22:30:19.090Z,8.00
2019-04-16T22:32:53.584Z,8.90
2019-04-16T22:35:31.698Z,8.50
2019-04-16T22:38:05.398Z,8.50
2019-04-16T22:41:05.762Z,8.30
2019-04-16T22:43:54.535Z,8.67
2019-04-16T22:46:42.552Z,8.53
2019-04-16T22:49:18.572Z,8.07
2019-04-16T22:51:54.374Z,8.50
2019-04-16T22:54:30.170Z,8.37
2019-04-16T22:57:07.142Z,8.30
2019-04-16T22:59:42.277Z,8.50
2019-04-16T23:02:20.055Z,8.50
2019-04-16T23:04:58.518Z,8.23
2019-04-16T23:07:32.066Z,7.70
2019-04-16T23:10:07.519Z,8.27
2019-04-16T23:12:42.688Z,8.37
2019-04-16T23:15:17.818Z,7.77
2019-04-16T23:17:52.958Z,7.90
2019-04-16T23:20:33.188Z,8.57
2019-04-16T23:23:06.370Z,8.30
2019-04-16T23:25:41.656Z,7.80
2019-04-16T23:28:16.672Z,8.07
2019-04-16T23:30:51.986Z,8.70
2019-04-16T23:33:27.079Z,8.70
2019-04-16T23:36:03.804Z,8.20
2019-04-16T23:38:38.824Z,8.10
2019-04-16T23:41:16.926Z,8.10
2019-04-16T23:44:09.500Z,7.63
2019-04-16T23:47:21.748Z,8.57
2019-04-16T23:50:13.026Z,6.90
2019-04-16T23:52:59.373Z,8.73
2019-04-16T23:56:05.573Z,7.87
2019-04-16T23:58:48.862Z,8.10
